LEST/SCQ METAR and TAF weather

Enter ICAO airport designator
Station Type Date Time Source
LEST METAR 2022/08/12 15:30 UTC NOAA

LEST 121530Z 26006KT 190V340 9999 FEW026 27/15 Q1016 NOSIG


Station Type Date Time Source
LEST Decoded METAR 2022/08/12 15:30 UTC NOAA

Santiago / Labacolla, Spain (LEST) 42-54N 008-26W 367M
Aug 12, 2022 - 11:30 AM EDT / 2022.08.12 1530 UTC
Wind: from the W (260 degrees) at 7 MPH (6 KT) (direction variable):0
Visibility: greater than 7 mile(s):0
Sky conditions: mostly clear
Temperature: 80 F (27 C)
Dew Point: 59 F (15 C)
Relative Humidity: 47%
Pressure (altimeter): 30.00 in. Hg (1016 hPa)
ob: LEST 121530Z 26006KT 190V340 9999 FEW026 27/15 Q1016 NOSIG
cycle: 15

Station Type Date Time Source
LEST TAF 2022/08/12 12:27 UTC NOAA

TAF LEST 121100Z 1212/1312 01007KT 9999 FEW025 TX28/1214Z TN14/1305Z
TEMPO 1213/1215 25010KT PROB40
TEMPO 1220/1308 3000 BR BKN005 PROB30
TEMPO 1308/1312 BKN010

Example: see airport list